Time;durP1;ratioP1;P1;durP2;ratioP2;P2;SDS_P1;SDS_P2;PMS_P1;PMS_P2;Temp;Humidity;BMP_temperature;BMP_pressure;BME280_temperature;BME280_humidity;BME280_pressure;Samples;Min_cycle;Max_cycle;Signal;HPM_P1;HPM_P2
2023/08/18 03:26:04;;;;;;;5.93;2.50;;;17.20;99.90;;;;;;5006495;28;20424;-63
2023/08/18 03:28:31;;;;;;;7.60;2.80;;;17.20;99.90;;;;;;5030642;28;20428;-63
2023/08/18 03:31:01;;;;;;;14.27;2.73;;;17.20;99.90;;;;;;5032819;28;20412;-63
2023/08/18 03:33:28;;;;;;;7.40;3.30;;;17.20;99.90;;;;;;5018122;28;20410;-63
2023/08/18 03:35:54;;;;;;;14.43;3.27;;;17.20;99.90;;;;;;5022247;28;20417;-63
2023/08/18 03:38:20;;;;;;;4.17;2.60;;;17.10;99.90;;;;;;5018212;28;20430;-63
2023/08/18 03:40:46;;;;;;;8.53;2.80;;;17.10;99.90;;;;;;5032707;28;20436;-63
2023/08/18 03:43:11;;;;;;;5.13;2.90;;;17.10;99.90;;;;;;5029114;28;20533;-63
2023/08/18 03:45:37;;;;;;;4.30;2.87;;;17.10;99.90;;;;;;5012884;28;20214;-63
2023/08/18 03:48:04;;;;;;;8.63;2.50;;;17.10;99.90;;;;;;5028192;28;20285;-63
2023/08/18 03:50:29;;;;;;;4.90;3.10;;;17.00;99.90;;;;;;5032905;28;20692;-63
2023/08/18 03:52:55;;;;;;;5.10;3.10;;;17.00;99.90;;;;;;5016970;28;20426;-63
2023/08/18 03:55:21;;;;;;;8.70;3.73;;;17.00;99.90;;;;;;5021522;28;20253;-63
2023/08/18 03:57:46;;;;;;;9.20;3.03;;;17.00;99.90;;;;;;5031911;28;20191;-63
2023/08/18 04:00:12;;;;;;;9.10;3.00;;;17.00;99.90;;;;;;5032773;28;20182;-63
2023/08/18 04:02:38;;;;;;;4.33;2.80;;;16.90;99.90;;;;;;5029482;28;20543;-63
2023/08/18 04:05:04;;;;;;;4.30;2.50;;;16.90;99.90;;;;;;5021294;28;20528;-63
2023/08/18 04:07:31;;;;;;;4.13;2.77;;;16.90;99.90;;;;;;5015840;28;20670;-63
2023/08/18 04:09:56;;;;;;;5.07;2.20;;;16.90;99.90;;;;;;5019098;28;20893;-63
2023/08/18 04:12:22;;;;;;;5.70;3.00;;;16.80;99.90;;;;;;5011748;28;20429;-63
2023/08/18 04:14:47;;;;;;;6.93;3.47;;;16.80;99.90;;;;;;5020750;28;20180;-63
2023/08/18 04:17:13;;;;;;;4.70;2.37;;;16.70;99.90;;;;;;5031947;28;20241;-62
2023/08/18 04:19:39;;;;;;;11.33;3.00;;;16.70;99.90;;;;;;5022949;28;20219;-63
2023/08/18 04:22:04;;;;;;;8.30;3.10;;;16.70;99.90;;;;;;5027136;28;20177;-63
2023/08/18 04:24:30;;;;;;;7.03;2.90;;;16.80;99.90;;;;;;5024849;28;20202;-63
2023/08/18 04:26:59;;;;;;;5.57;3.10;;;16.80;99.90;;;;;;5031464;28;20170;-63
2023/08/18 04:29:26;;;;;;;5.63;3.10;;;16.80;99.90;;;;;;5031600;28;20600;-63
2023/08/18 04:31:52;;;;;;;10.30;4.10;;;16.80;99.90;;;;;;5028548;28;20505;-63
2023/08/18 04:34:17;;;;;;;4.33;2.97;;;16.80;99.90;;;;;;5013512;28;20513;-63
2023/08/18 04:36:44;;;;;;;6.70;3.20;;;16.80;99.90;;;;;;5025158;28;20294;-63
2023/08/18 04:39:11;;;;;;;3.97;2.57;;;16.80;99.90;;;;;;5011862;28;20198;-63
2023/08/18 04:41:37;;;;;;;6.43;4.00;;;16.80;99.90;;;;;;5028691;28;20429;-63
2023/08/18 04:44:03;;;;;;;8.23;4.70;;;16.80;99.90;;;;;;5030676;28;20535;-63
2023/08/18 04:46:30;;;;;;;9.17;4.57;;;16.70;99.90;;;;;;5031678;28;20183;-63
2023/08/18 04:48:55;;;;;;;5.70;3.50;;;16.70;99.90;;;;;;5030031;28;20441;-63
2023/08/18 04:51:21;;;;;;;7.27;3.70;;;16.70;99.90;;;;;;5027603;28;20548;-63
2023/08/18 04:53:46;;;;;;;8.17;3.80;;;16.70;99.90;;;;;;5012112;28;20229;-63
2023/08/18 04:56:12;;;;;;;6.10;3.50;;;16.70;99.90;;;;;;5028521;28;20236;-63
2023/08/18 04:58:38;;;;;;;6.63;4.10;;;16.70;99.90;;;;;;5030398;28;20638;-63
2023/08/18 05:01:04;;;;;;;4.97;3.40;;;16.80;99.90;;;;;;5014175;28;20210;-63
2023/08/18 05:03:31;;;;;;;13.83;3.83;;;16.80;99.90;;;;;;5010834;28;20294;-63
2023/08/18 05:06:04;;;;;;;6.83;4.00;;;16.80;99.90;;;;;;5006336;28;20412;-63
2023/08/18 05:08:31;;;;;;;5.60;3.43;;;16.80;99.90;;;;;;4991412;28;20446;-63
2023/08/18 05:11:00;;;;;;;5.90;3.13;;;16.80;99.90;;;;;;5002680;28;20884;-63
2023/08/18 05:13:26;;;;;;;6.47;3.73;;;16.80;99.90;;;;;;5010081;28;20443;-63
2023/08/18 05:15:52;;;;;;;8.73;3.70;;;16.80;99.90;;;;;;5011260;28;20426;-63
2023/08/18 05:18:19;;;;;;;5.60;3.30;;;16.80;99.90;;;;;;5010942;28;20258;-63
2023/08/18 05:20:44;;;;;;;6.30;3.07;;;16.80;99.90;;;;;;5006285;28;20588;-63
2023/08/18 05:23:10;;;;;;;5.60;4.00;;;16.80;99.90;;;;;;4998026;28;20458;-63
2023/08/18 05:25:36;;;;;;;5.80;3.60;;;16.80;99.90;;;;;;5008971;28;20190;-63
2023/08/18 05:28:02;;;;;;;11.33;3.37;;;16.80;99.90;;;;;;5010673;28;20206;-63
2023/08/18 05:30:28;;;;;;;5.40;3.10;;;16.90;99.90;;;;;;5011013;28;20175;-63
2023/08/18 05:32:53;;;;;;;6.43;3.77;;;16.90;99.90;;;;;;5000324;28;20804;-63
2023/08/18 05:35:19;;;;;;;7.17;4.00;;;17.00;99.90;;;;;;4997481;28;20590;-63
2023/08/18 05:37:44;;;;;;;7.77;4.07;;;17.00;99.90;;;;;;5010595;28;20205;-63
2023/08/18 05:40:10;;;;;;;6.50;3.20;;;17.10;99.90;;;;;;4997199;28;20230;-63
2023/08/18 05:42:36;;;;;;;6.23;3.70;;;17.10;99.90;;;;;;5010433;28;20195;-63
2023/08/18 05:45:02;;;;;;;6.60;4.27;;;17.10;99.90;;;;;;5010136;28;20179;-63
2023/08/18 05:47:27;;;;;;;8.43;3.40;;;17.20;99.90;;;;;;5010654;28;20640;-63
2023/08/18 05:49:53;;;;;;;9.20;3.77;;;17.20;99.90;;;;;;5010661;28;20178;-63
2023/08/18 05:52:18;;;;;;;8.40;4.53;;;17.20;99.90;;;;;;5010760;28;20266;-63
2023/08/18 05:54:44;;;;;;;6.57;3.80;;;17.30;99.90;;;;;;5009762;28;20281;-63
2023/08/18 05:57:09;;;;;;;6.00;3.57;;;17.30;99.90;;;;;;5010297;28;20221;-63
2023/08/18 05:59:35;;;;;;;7.00;3.87;;;17.40;99.90;;;;;;5010600;28;20623;-63
2023/08/18 06:02:01;;;;;;;4.83;2.87;;;17.50;99.90;;;;;;5010623;28;20230;-63
2023/08/18 06:04:27;;;;;;;6.23;3.67;;;17.50;99.90;;;;;;4997208;28;20199;-63
2023/08/18 06:06:52;;;;;;;5.50;3.90;;;17.50;99.90;;;;;;5000115;28;20184;-63
2023/08/18 06:09:19;;;;;;;5.63;3.50;;;17.60;99.90;;;;;;4994297;28;20655;-63
2023/08/18 06:11:44;;;;;;;8.67;3.00;;;17.60;99.90;;;;;;4993994;28;20795;-63
2023/08/18 06:14:10;;;;;;;8.53;4.10;;;17.70;99.90;;;;;;5003309;28;20430;-63
2023/08/18 06:16:35;;;;;;;4.63;3.37;;;17.80;99.90;;;;;;5000912;28;20194;-63
2023/08/18 06:19:01;;;;;;;4.37;2.87;;;17.80;99.90;;;;;;4993483;28;20295;-63
2023/08/18 06:21:27;;;;;;;9.30;3.27;;;17.90;99.90;;;;;;4990240;28;20190;-63
2023/08/18 06:23:52;;;;;;;4.70;2.80;;;18.00;99.90;;;;;;5000524;28;20218;-63
2023/08/18 06:26:18;;;;;;;8.57;4.13;;;18.00;99.90;;;;;;4997447;28;20636;-63
2023/08/18 06:28:43;;;;;;;4.20;2.57;;;18.10;99.90;;;;;;4990370;28;20187;-63
2023/08/18 06:31:09;;;;;;;6.03;3.03;;;18.20;99.90;;;;;;4987436;28;20290;-63
2023/08/18 06:33:35;;;;;;;6.00;3.27;;;18.30;99.90;;;;;;4993077;28;20187;-63
2023/08/18 06:36:02;;;;;;;5.20;3.17;;;18.40;99.90;;;;;;5000784;28;20246;-63
2023/08/18 06:38:28;;;;;;;5.10;2.57;;;18.60;99.90;;;;;;5010193;28;20445;-63
2023/08/18 06:40:54;;;;;;;5.07;2.70;;;18.70;99.90;;;;;;5010086;28;20919;-63
2023/08/18 06:43:20;;;;;;;4.53;3.03;;;18.80;99.90;;;;;;5008308;28;20195;-63
2023/08/18 06:45:45;;;;;;;7.50;2.83;;;18.90;99.90;;;;;;4991425;28;20217;-63
2023/08/18 06:48:11;;;;;;;3.87;2.43;;;19.00;99.90;;;;;;5010880;28;20183;-63
2023/08/18 06:50:37;;;;;;;7.77;3.17;;;19.20;99.90;;;;;;5014294;28;20274;-63
2023/08/18 06:53:03;;;;;;;3.40;2.37;;;19.30;99.90;;;;;;5010709;28;20435;-63
2023/08/18 06:55:29;;;;;;;10.10;2.90;;;19.60;99.90;;;;;;5003780;28;20253;-63
2023/08/18 06:57:54;;;;;;;11.20;2.43;;;19.70;99.90;;;;;;5013421;28;20690;-63
2023/08/18 07:00:20;;;;;;;5.50;2.37;;;19.80;99.90;;;;;;5013858;28;20648;-63
2023/08/18 07:02:46;;;;;;;9.50;2.70;;;20.00;99.90;;;;;;5013332;28;20534;-63
2023/08/18 07:05:12;;;;;;;3.33;2.00;;;20.30;99.90;;;;;;5013441;28;20428;-63
2023/08/18 07:07:38;;;;;;;4.80;2.10;;;20.60;99.90;;;;;;4996458;28;20427;-63
2023/08/18 07:10:05;;;;;;;4.80;2.80;;;20.90;99.90;;;;;;5000596;28;20175;-63
2023/08/18 07:12:31;;;;;;;4.93;2.97;;;21.20;99.90;;;;;;5010221;28;20426;-63
2023/08/18 07:14:56;;;;;;;4.20;2.80;;;21.50;99.90;;;;;;5010108;28;20432;-63
2023/08/18 07:17:22;;;;;;;8.03;2.47;;;22.00;99.90;;;;;;5013147;28;20417;-63
2023/08/18 07:19:47;;;;;;;7.93;2.33;;;22.20;99.90;;;;;;5013638;28;20297;-63
2023/08/18 07:22:13;;;;;;;7.17;2.57;;;22.80;99.90;;;;;;5013232;28;20190;-63
2023/08/18 07:24:39;;;;;;;3.97;2.20;;;23.20;99.90;;;;;;4992053;28;20211;-63
2023/08/18 07:27:04;;;;;;;10.43;2.30;;;23.70;99.90;;;;;;4986996;28;20213;-63
2023/08/18 07:29:33;;;;;;;3.80;2.30;;;24.10;99.90;;;;;;4993642;28;20537;-63
2023/08/18 07:31:59;;;;;;;3.90;2.53;;;24.30;99.90;;;;;;4990093;28;20172;-63
2023/08/18 07:34:25;;;;;;;7.40;2.53;;;24.50;99.90;;;;;;4994511;28;20430;-63
2023/08/18 07:36:51;;;;;;;5.53;2.00;;;25.60;99.90;;;;;;5009886;28;20628;-64
2023/08/18 07:39:18;;;;;;;12.15;1.80;;;26.70;99.90;;;;;;5012236;28;20190;-64
2023/08/18 07:41:44;;;;;;;3.00;2.03;;;27.40;99.60;;;;;;5012900;28;20193;-63
2023/08/18 07:44:10;;;;;;;5.93;2.45;;;27.40;99.00;;;;;;5005350;28;20275;-64
2023/08/18 07:46:36;;;;;;;4.28;1.55;;;28.20;98.30;;;;;;5006336;28;20250;-64
2023/08/18 07:49:03;;;;;;;4.88;1.80;;;28.70;96.40;;;;;;5002660;28;20640;-64
2023/08/18 07:51:28;;;;;;;4.18;1.77;;;29.20;94.60;;;;;;5009650;28;20202;-64
2023/08/18 07:53:54;;;;;;;4.68;1.70;;;29.20;94.60;;;;;;4992621;28;20234;-63
2023/08/18 07:56:20;;;;;;;6.10;1.83;;;29.80;93.60;;;;;;4991244;28;20261;-64
2023/08/18 07:58:45;;;;;;;2.60;1.40;;;30.10;92.50;;;;;;4993569;28;20191;-64
2023/08/18 08:01:11;;;;;;;2.85;1.65;;;29.80;92.80;;;;;;4987393;28;20201;-64
2023/08/18 08:03:37;;;;;;;9.35;1.95;;;30.10;92.30;;;;;;4994193;28;20266;-64
2023/08/18 08:06:05;;;;;;;10.35;2.13;;;30.30;93.10;;;;;;5004855;28;20179;-64
2023/08/18 08:08:31;;;;;;;4.07;1.63;;;30.30;91.80;;;;;;4992756;28;20214;-64
2023/08/18 08:10:57;;;;;;;2.75;1.42;;;31.00;89.80;;;;;;5003409;28;20247;-64
2023/08/18 08:13:24;;;;;;;6.75;1.98;;;30.70;90.00;;;;;;5011004;28;20195;-64
2023/08/18 08:15:50;;;;;;;5.78;1.33;;;30.80;88.00;;;;;;5010021;28;20194;-64
2023/08/18 08:18:18;;;;;;;2.53;1.13;;;30.40;86.90;;;;;;5012043;28;20197;-64
2023/08/18 08:20:43;;;;;;;2.63;1.50;;;30.70;86.00;;;;;;5012265;28;20183;-64
2023/08/18 08:23:09;;;;;;;5.65;1.63;;;30.90;85.50;;;;;;5011694;28;20604;-64
2023/08/18 08:25:37;;;;;;;4.05;1.92;;;30.60;86.20;;;;;;4999705;28;20630;-64
2023/08/18 08:28:03;;;;;;;2.08;1.23;;;30.90;85.60;;;;;;5012015;28;20175;-64
2023/08/18 08:30:28;;;;;;;7.53;2.30;;;31.00;84.70;;;;;;5012067;28;20506;-64
2023/08/18 08:32:54;;;;;;;2.38;1.48;;;31.30;85.40;;;;;;5001225;28;20628;-64
2023/08/18 08:35:20;;;;;;;4.45;1.30;;;31.10;85.30;;;;;;4997362;28;20746;-64
2023/08/18 08:37:46;;;;;;;5.25;2.20;;;30.70;87.80;;;;;;5012050;28;20189;-64
2023/08/18 08:40:20;;;;;;;3.72;1.55;;;30.70;88.50;;;;;;5011336;28;20519;-64
2023/08/18 08:42:48;;;;;;;2.20;1.40;;;31.20;88.60;;;;;;5011186;28;20178;-64
2023/08/18 08:45:14;;;;;;;3.75;1.40;;;30.90;85.70;;;;;;5001309;28;20182;-64
2023/08/18 08:47:42;;;;;;;7.10;1.77;;;31.20;84.70;;;;;;5012041;28;20189;-64
2023/08/18 08:50:08;;;;;;;4.32;2.08;;;31.50;85.30;;;;;;5011825;28;20185;-64
2023/08/18 08:52:39;;;;;;;6.78;2.00;;;31.80;87.60;;;;;;5011722;28;20654;-64
2023/08/18 08:55:06;;;;;;;3.33;1.63;;;32.70;84.20;;;;;;5004868;28;20187;-64
2023/08/18 08:57:32;;;;;;;3.28;1.65;;;32.20;84.00;;;;;;5011042;28;20199;-64
2023/08/18 08:59:59;;;;;;;4.68;1.67;;;32.20;84.30;;;;;;5005406;28;20253;-64
2023/08/18 09:02:24;;;;;;;2.72;1.42;;;32.30;84.00;;;;;;5004744;28;20647;-65
2023/08/18 09:04:50;;;;;;;3.67;1.88;;;32.20;85.10;;;;;;5010634;28;20220;-64
2023/08/18 09:07:16;;;;;;;5.18;1.98;;;31.50;86.40;;;;;;4997156;28;20183;-64
2023/08/18 09:09:42;;;;;;;5.10;2.00;;;31.50;88.00;;;;;;4998380;28;20205;-64
2023/08/18 09:12:09;;;;;;;4.35;2.20;;;31.50;85.80;;;;;;5004543;28;20299;-64
2023/08/18 09:14:35;;;;;;;3.45;1.90;;;31.40;88.10;;;;;;5007979;28;20190;-64
2023/08/18 09:17:04;;;;;;;2.83;1.60;;;31.00;87.30;;;;;;5011257;28;20248;-64
2023/08/18 09:19:30;;;;;;;3.83;1.85;;;31.60;88.20;;;;;;5011178;28;20191;-64
2023/08/18 09:22:00;;;;;;;11.73;2.63;;;31.60;87.00;;;;;;5011047;28;20186;-64
2023/08/18 09:24:31;;;;;;;6.32;1.60;;;32.00;89.10;;;;;;5003419;28;20819;-64
2023/08/18 09:27:14;;;;;;;15.60;1.50;;;32.20;85.30;;;;;;5007017;28;20997;-64
2023/08/18 09:29:40;;;;;;;3.03;1.50;;;32.80;82.50;;;;;;5011409;28;20186;-64
2023/08/18 09:32:08;;;;;;;3.13;1.60;;;32.50;82.20;;;;;;5011068;28;20185;-64
2023/08/18 09:34:53;;;;;;;2.72;1.40;;;32.50;83.40;;;;;;5001132;28;20191;-64
2023/08/18 09:37:18;;;;;;;3.05;1.45;;;31.30;86.60;;;;;;4987273;28;20528;-64
2023/08/18 09:39:45;;;;;;;8.00;1.67;;;30.80;85.20;;;;;;5010547;28;20722;-64
2023/08/18 09:42:12;;;;;;;4.13;1.75;;;31.10;85.00;;;;;;5010510;28;20647;-64
2023/08/18 09:44:37;;;;;;;3.63;1.80;;;31.70;84.70;;;;;;5000867;28;20628;-64
2023/08/18 09:47:05;;;;;;;1.98;1.15;;;31.30;86.30;;;;;;5010726;28;20179;-64
2023/08/18 09:49:36;;;;;;;2.80;1.55;;;31.30;85.20;;;;;;5010501;28;20178;-64
2023/08/18 09:52:04;;;;;;;7.00;1.80;;;31.60;83.10;;;;;;5010604;28;20275;-64
2023/08/18 09:54:36;;;;;;;4.15;1.98;;;31.00;81.90;;;;;;5004827;28;20183;-64
2023/08/18 09:57:07;;;;;;;4.22;1.73;;;31.00;80.80;;;;;;5010483;28;20190;-64
2023/08/18 09:59:42;;;;;;;7.30;1.98;;;31.30;82.10;;;;;;4997347;28;20182;-64
2023/08/18 10:02:14;;;;;;;9.90;2.15;;;31.60;84.10;;;;;;5010501;28;20182;-64
2023/08/18 10:04:40;;;;;;;8.57;1.58;;;31.20;82.90;;;;;;5010083;28;20556;-64
2023/08/18 10:07:06;;;;;;;3.35;1.52;;;30.50;82.70;;;;;;4997739;28;20167;-64
2023/08/18 10:09:33;;;;;;;2.75;1.48;;;30.40;81.70;;;;;;4996448;28;20229;-64
2023/08/18 10:12:01;;;;;;;2.78;1.17;;;30.20;83.10;;;;;;4991831;28;20514;-64
2023/08/18 10:14:27;;;;;;;6.18;1.75;;;30.20;82.90;;;;;;5006578;28;20283;-64
2023/08/18 10:16:54;;;;;;;2.40;1.20;;;29.80;85.90;;;;;;5010675;28;20179;-63
2023/08/18 10:20:00;;;;;;;4.03;1.48;;;29.90;83.90;;;;;;5010937;28;20567;-63
2023/08/18 10:22:30;;;;;;;3.65;1.33;;;29.80;87.70;;;;;;4969305;28;20187;-63
2023/08/18 10:24:56;;;;;;;3.10;1.58;;;29.50;86.80;;;;;;4961607;28;20250;-63
2023/08/18 10:27:27;;;;;;;2.88;1.35;;;29.40;82.90;;;;;;4992930;28;20207;-63
2023/08/18 10:30:05;;;;;;;6.70;1.75;;;29.20;86.70;;;;;;5015027;28;20183;-63
2023/08/18 10:32:33;;;;;;;2.00;0.85;;;29.00;84.90;;;;;;5014798;28;20265;-63
2023/08/18 10:35:25;;;;;;;2.53;1.25;;;29.20;85.60;;;;;;5002574;28;20286;-63
2023/08/18 10:38:03;;;;;;;6.90;1.42;;;29.00;85.70;;;;;;5014632;28;20183;-63
2023/08/18 10:40:36;;;;;;;3.58;1.65;;;28.80;86.10;;;;;;5014132;28;20206;-63
2023/08/18 10:43:12;;;;;;;3.92;1.73;;;29.10;88.50;;;;;;5014063;28;20663;-63
2023/08/18 10:45:39;;;;;;;4.05;1.48;;;29.10;87.90;;;;;;5004355;28;20182;-63
2023/08/18 10:48:06;;;;;;;8.25;1.83;;;29.10;84.70;;;;;;5014237;28;20183;-63
2023/08/18 10:50:34;;;;;;;4.25;1.52;;;29.40;86.30;;;;;;5014377;28;20229;-63
2023/08/18 10:53:01;;;;;;;4.15;1.67;;;29.50;86.90;;;;;;5014190;28;20189;-63
2023/08/18 10:55:28;;;;;;;2.90;1.42;;;29.60;87.40;;;;;;5007431;28;20195;-63
2023/08/18 10:57:53;;;;;;;5.50;1.50;;;29.50;90.10;;;;;;5013630;28;20258;-64
2023/08/18 11:00:19;;;;;;;3.88;1.50;;;29.60;89.30;;;;;;5014193;28;20194;-63
2023/08/18 11:02:49;;;;;;;3.15;1.20;;;29.40;88.30;;;;;;5013854;28;20186;-63
2023/08/18 11:05:21;;;;;;;2.33;1.00;;;29.40;89.20;;;;;;5004289;28;20648;-63
2023/08/18 11:07:49;;;;;;;3.25;1.38;;;29.50;89.10;;;;;;4993261;28;20176;-63
2023/08/18 11:10:16;;;;;;;7.05;2.00;;;29.40;90.00;;;;;;5001309;28;20770;-63
2023/08/18 11:12:44;;;;;;;3.75;1.67;;;29.50;91.40;;;;;;5012288;28;20182;-63
2023/08/18 11:15:11;;;;;;;2.20;1.35;;;29.80;89.90;;;;;;5010859;28;20182;-63
2023/08/18 11:17:36;;;;;;;2.30;1.60;;;30.10;86.40;;;;;;5013890;28;20195;-63
2023/08/18 11:20:05;;;;;;;4.35;1.38;;;30.00;86.20;;;;;;5014305;28;20182;-63
2023/08/18 11:22:35;;;;;;;3.92;1.33;;;29.60;87.00;;;;;;5007892;28;20180;-63
2023/08/18 11:25:00;;;;;;;3.47;1.55;;;29.90;88.40;;;;;;4994746;28;20583;-63
2023/08/18 11:27:26;;;;;;;8.57;1.73;;;30.10;86.50;;;;;;5012797;28;20178;-64
2023/08/18 11:29:52;;;;;;;5.53;1.33;;;30.00;88.50;;;;;;5013707;28;20596;-64
2023/08/18 11:32:18;;;;;;;7.22;1.58;;;29.80;83.60;;;;;;5013420;28;20268;-63
2023/08/18 11:34:43;;;;;;;2.38;1.30;;;30.00;85.70;;;;;;5000375;28;20294;-63
2023/08/18 11:37:11;;;;;;;1.90;0.90;;;30.20;83.40;;;;;;5011735;28;20182;-64
2023/08/18 11:39:37;;;;;;;3.15;1.20;;;30.30;82.70;;;;;;5013342;28;20198;-63
2023/08/18 11:42:04;;;;;;;2.72;1.17;;;30.30;83.60;;;;;;5012688;28;20194;-63
2023/08/18 11:44:33;;;;;;;2.67;1.25;;;30.40;81.80;;;;;;5001037;28;20229;-63
2023/08/18 11:46:59;;;;;;;5.63;1.50;;;30.20;82.90;;;;;;5012650;28;20185;-63
2023/08/18 11:49:25;;;;;;;4.50;1.38;;;30.40;83.20;;;;;;5013357;28;20552;-63
2023/08/18 11:51:58;;;;;;;2.22;1.13;;;30.10;79.90;;;;;;5013167;28;20175;-63
2023/08/18 11:54:33;;;;;;;12.48;1.58;;;30.00;80.40;;;;;;5006209;28;20191;-64
2023/08/18 11:57:00;;;;;;;1.70;0.80;;;30.10;82.30;;;;;;5013057;28;20300;-63
2023/08/18 11:59:26;;;;;;;3.90;1.73;;;30.50;78.80;;;;;;5013197;28;20186;-64
2023/08/18 12:02:00;;;;;;;2.72;1.10;;;30.70;77.00;;;;;;5005053;28;20179;-63
2023/08/18 12:04:27;;;;;;;4.28;1.90;;;30.70;75.10;;;;;;5009213;28;20252;-63
2023/08/18 12:06:53;;;;;;;6.18;1.42;;;30.80;78.20;;;;;;5002504;28;20732;-64
2023/08/18 12:09:20;;;;;;;8.02;1.50;;;30.90;75.70;;;;;;4996831;28;20192;-63
2023/08/18 12:11:46;;;;;;;8.25;1.42;;;31.10;76.80;;;;;;5006299;28;20190;-63
2023/08/18 12:14:11;;;;;;;2.67;1.27;;;30.80;77.20;;;;;;5008449;28;20178;-63
2023/08/18 12:16:37;;;;;;;4.68;1.27;;;31.10;78.70;;;;;;5012987;28;20190;-63
2023/08/18 12:19:06;;;;;;;3.17;1.33;;;31.20;73.90;;;;;;5012533;28;20285;-63
2023/08/18 12:21:32;;;;;;;2.58;0.93;;;31.00;78.10;;;;;;5012772;28;20186;-63
2023/08/18 12:23:59;;;;;;;3.55;1.33;;;31.10;75.40;;;;;;5008748;28;20226;-63
2023/08/18 12:26:25;;;;;;;3.13;1.73;;;31.30;77.50;;;;;;4992815;28;20530;-63
2023/08/18 12:28:50;;;;;;;2.67;1.33;;;31.30;75.70;;;;;;5008943;28;20179;-63
2023/08/18 12:31:19;;;;;;;6.00;1.17;;;31.50;73.80;;;;;;5011307;28;20194;-63
2023/08/18 12:33:44;;;;;;;2.33;1.30;;;31.60;73.20;;;;;;5008895;28;20206;-63
2023/08/18 12:36:11;;;;;;;12.60;1.27;;;31.60;74.10;;;;;;5002959;28;20636;-63
2023/08/18 12:38:36;;;;;;;3.72;1.85;;;31.70;73.80;;;;;;5012112;28;20252;-63
2023/08/18 12:41:03;;;;;;;10.05;2.40;;;32.00;75.70;;;;;;5004271;28;20202;-63
2023/08/18 12:43:29;;;;;;;4.57;1.13;;;32.20;77.60;;;;;;5011205;28;20202;-63
2023/08/18 12:45:55;;;;;;;2.38;1.63;;;32.30;70.10;;;;;;5012082;28;20183;-63
2023/08/18 12:48:21;;;;;;;4.88;1.50;;;32.00;70.70;;;;;;5012308;28;20186;-63
2023/08/18 12:50:47;;;;;;;5.47;1.80;;;31.80;73.70;;;;;;5011053;28;20186;-63
2023/08/18 12:53:12;;;;;;;7.28;1.67;;;32.00;72.00;;;;;;5011726;28;20214;-63
2023/08/18 12:55:38;;;;;;;4.00;1.67;;;31.90;71.70;;;;;;5004921;28;20183;-63
2023/08/18 12:58:03;;;;;;;5.15;1.95;;;31.80;74.70;;;;;;4998419;28;20229;-63
2023/08/18 13:00:29;;;;;;;6.32;1.58;;;32.00;74.20;;;;;;5012772;28;20222;-63
2023/08/18 13:02:55;;;;;;;8.27;1.77;;;32.20;71.50;;;;;;5012402;28;20623;-63
2023/08/18 13:05:20;;;;;;;3.60;1.45;;;32.50;74.60;;;;;;5012305;28;20187;-63
2023/08/18 13:07:48;;;;;;;4.25;1.60;;;32.30;71.20;;;;;;4994325;28;20175;-63
2023/08/18 13:10:14;;;;;;;3.97;1.23;;;32.40;71.50;;;;;;4993926;28;20187;-63
2023/08/18 13:12:39;;;;;;;4.65;1.38;;;32.20;71.40;;;;;;5010817;28;20189;-63
2023/08/18 13:15:06;;;;;;;11.77;1.98;;;32.00;71.50;;;;;;5012045;28;20183;-63
2023/08/18 13:17:32;;;;;;;4.85;2.53;;;32.20;73.10;;;;;;5012256;28;20233;-63
2023/08/18 13:19:58;;;;;;;3.05;1.48;;;32.50;71.60;;;;;;5012221;28;21017;-63
2023/08/18 13:22:24;;;;;;;6.43;1.73;;;32.40;74.30;;;;;;5012270;28;20691;-63
2023/08/18 13:24:52;;;;;;;5.47;1.73;;;32.40;68.70;;;;;;4996785;28;20211;-63
2023/08/18 13:27:19;;;;;;;4.13;1.60;;;32.40;70.40;;;;;;4988177;28;20228;-63
2023/08/18 13:29:44;;;;;;;4.05;1.55;;;32.50;71.00;;;;;;4991223;28;20261;-63
2023/08/18 13:32:10;;;;;;;5.63;1.73;;;32.60;71.50;;;;;;4992628;28;20282;-64
2023/08/18 13:34:35;;;;;;;3.00;1.33;;;32.80;70.70;;;;;;4992152;28;20198;-63
2023/08/18 13:37:01;;;;;;;18.52;2.03;;;32.90;71.50;;;;;;4990351;28;20195;-63
2023/08/18 13:39:27;;;;;;;7.15;2.03;;;33.10;69.20;;;;;;4990199;28;20198;-63
2023/08/18 13:41:52;;;;;;;9.60;1.27;;;32.70;70.60;;;;;;4987125;28;20191;-63
2023/08/18 13:44:18;;;;;;;4.90;1.45;;;32.80;71.40;;;;;;4988637;28;20211;-63
2023/08/18 13:46:44;;;;;;;5.63;1.50;;;32.80;73.30;;;;;;4990862;28;20183;-63
2023/08/18 13:49:10;;;;;;;2.40;1.45;;;32.20;70.60;;;;;;4987537;28;20204;-63
2023/08/18 13:51:37;;;;;;;4.50;1.38;;;32.00;71.90;;;;;;4988574;28;20180;-63
2023/08/18 13:54:03;;;;;;;3.35;1.75;;;32.20;72.50;;;;;;4991633;28;20278;-63
2023/08/18 13:56:29;;;;;;;2.63;1.75;;;32.70;72.00;;;;;;4988581;28;20274;-63
2023/08/18 13:58:54;;;;;;;8.80;1.88;;;32.60;73.30;;;;;;4990890;28;20647;-63
2023/08/18 14:01:20;;;;;;;2.88;1.65;;;32.60;69.50;;;;;;4997675;28;20186;-63
2023/08/18 14:03:45;;;;;;;15.10;2.28;;;32.50;72.50;;;;;;4990208;28;20281;-63
2023/08/18 14:06:11;;;;;;;3.53;1.50;;;32.70;73.00;;;;;;4991786;28;20194;-63
2023/08/18 14:08:37;;;;;;;4.07;1.70;;;32.60;69.80;;;;;;4992021;28;20266;-63
2023/08/18 14:11:03;;;;;;;8.38;1.90;;;32.10;71.50;;;;;;4990901;28;20183;-63
2023/08/18 14:13:28;;;;;;;3.05;1.60;;;32.30;70.40;;;;;;4988312;28;20604;-63
2023/08/18 14:15:54;;;;;;;6.38;2.28;;;32.60;69.10;;;;;;4988699;28;20676;-63
2023/08/18 14:18:20;;;;;;;3.00;1.30;;;32.50;68.80;;;;;;4989498;28;20274;-63
2023/08/18 14:20:45;;;;;;;7.25;1.60;;;32.60;67.00;;;;;;4992144;28;20202;-63
2023/08/18 14:23:11;;;;;;;4.57;1.88;;;32.60;68.00;;;;;;4991770;28;20202;-63
2023/08/18 14:25:38;;;;;;;1.88;1.00;;;32.20;69.10;;;;;;4991795;28;20210;-63
2023/08/18 14:28:04;;;;;;;3.05;1.23;;;32.10;69.90;;;;;;4989981;28;20269;-63
2023/08/18 14:30:31;;;;;;;6.25;2.22;;;32.20;71.50;;;;;;4988647;28;20184;-63
2023/08/18 14:32:57;;;;;;;5.30;1.52;;;32.10;71.90;;;;;;4991631;28;20683;-63
2023/08/18 14:35:23;;;;;;;5.18;1.83;;;32.30;73.50;;;;;;4991163;28;20274;-63
2023/08/18 14:37:48;;;;;;;2.97;1.33;;;32.60;71.40;;;;;;4991855;28;20192;-63
2023/08/18 14:40:14;;;;;;;2.70;1.52;;;32.60;69.90;;;;;;4991899;28;20210;-63
2023/08/18 14:42:39;;;;;;;4.65;1.88;;;32.30;71.20;;;;;;4990999;28;20187;-63
2023/08/18 14:45:06;;;;;;;4.13;2.00;;;32.00;72.90;;;;;;4990983;28;20210;-63
2023/08/18 14:47:33;;;;;;;2.40;1.42;;;32.00;71.10;;;;;;4991180;28;20183;-63
2023/08/18 14:49:59;;;;;;;4.75;2.00;;;32.10;72.70;;;;;;4991502;28;20227;-63
2023/08/18 14:52:25;;;;;;;3.50;2.10;;;32.00;69.80;;;;;;5002735;28;20274;-63
2023/08/18 14:54:51;;;;;;;8.32;1.95;;;32.00;71.40;;;;;;4988516;28;20324;-63
2023/08/18 14:57:17;;;;;;;12.27;2.25;;;32.00;71.90;;;;;;4987746;28;20211;-63
2023/08/18 14:59:43;;;;;;;2.58;1.42;;;32.00;75.80;;;;;;4992706;28;20599;-63
2023/08/18 15:02:10;;;;;;;6.30;1.98;;;32.00;75.40;;;;;;5002398;28;20182;-63
2023/08/18 15:04:36;;;;;;;3.88;1.52;;;32.10;75.60;;;;;;4997047;28;20210;-63
2023/08/18 15:07:02;;;;;;;4.57;1.58;;;31.90;70.70;;;;;;4998861;28;20273;-63
2023/08/18 15:09:34;;;;;;;4.40;1.83;;;32.00;70.00;;;;;;4992233;28;20254;-63
2023/08/18 15:12:00;;;;;;;4.47;1.67;;;32.00;73.40;;;;;;4994317;28;20194;-63
2023/08/18 15:14:26;;;;;;;5.07;1.83;;;31.80;71.70;;;;;;5000642;28;20205;-63
2023/08/18 15:16:52;;;;;;;10.32;2.45;;;32.00;70.80;;;;;;5014108;28;20555;-63
2023/08/18 15:19:18;;;;;;;8.57;1.60;;;31.90;72.20;;;;;;4995072;28;20658;-63
2023/08/18 15:21:43;;;;;;;3.97;1.42;;;31.90;72.70;;;;;;5007081;28;20190;-63
2023/08/18 15:24:10;;;;;;;4.85;2.00;;;31.80;70.00;;;;;;4994725;28;20221;-63
2023/08/18 15:26:37;;;;;;;6.50;1.75;;;31.80;69.70;;;;;;4999651;28;20285;-63
2023/08/18 15:29:04;;;;;;;12.65;2.25;;;31.70;72.10;;;;;;5007466;28;20186;-63
2023/08/18 15:31:32;;;;;;;6.30;1.58;;;31.50;72.10;;;;;;4994007;28;20261;-63
2023/08/18 15:33:59;;;;;;;6.15;1.75;;;31.40;71.40;;;;;;4982996;28;20278;-63
2023/08/18 15:36:25;;;;;;;3.03;1.70;;;31.30;75.90;;;;;;4994320;28;20266;-63
2023/08/18 15:38:50;;;;;;;3.33;1.30;;;31.10;72.70;;;;;;4994258;28;20302;-63
2023/08/18 15:41:16;;;;;;;17.98;2.15;;;31.00;71.50;;;;;;4996948;28;20558;-63
2023/08/18 15:43:42;;;;;;;5.75;1.73;;;30.80;70.90;;;;;;5012716;28;20206;-63
2023/08/18 15:46:08;;;;;;;5.35;1.98;;;30.90;73.60;;;;;;5000277;28;20191;-63
2023/08/18 15:48:33;;;;;;;4.40;1.83;;;30.90;73.80;;;;;;4994109;28;20598;-63
2023/08/18 15:50:59;;;;;;;36.03;2.17;;;30.90;74.80;;;;;;4993980;28;20207;-63
2023/08/18 15:53:25;;;;;;;8.52;1.65;;;30.90;77.50;;;;;;4993393;28;20184;-63
2023/08/18 15:55:50;;;;;;;3.40;1.40;;;30.90;73.10;;;;;;4993718;28;21099;-63
2023/08/18 15:58:18;;;;;;;4.32;1.80;;;30.90;74.80;;;;;;5013042;28;20607;-63
2023/08/18 16:00:45;;;;;;;6.10;2.10;;;30.80;75.80;;;;;;5006894;28;20202;-63
2023/08/18 16:03:11;;;;;;;6.50;1.55;;;30.80;73.90;;;;;;4989929;28;20218;-63
2023/08/18 16:05:37;;;;;;;4.63;1.67;;;30.80;74.70;;;;;;4993624;28;20190;-63
2023/08/18 16:08:08;;;;;;;4.30;1.70;;;31.00;72.90;;;;;;4988606;28;20179;-63